createdAt,value
2022-08-09T00:00:04.951Z,17.49
2022-08-09T00:02:42.825Z,17.54
2022-08-09T00:06:16.496Z,17.57
2022-08-09T00:08:02.929Z,17.58
2022-08-09T00:10:29.815Z,17.58
2022-08-09T00:12:57.336Z,17.58
2022-08-09T00:15:35.390Z,17.55
2022-08-09T00:18:12.527Z,17.52
2022-08-09T00:20:48.360Z,17.48
2022-08-09T00:23:55.773Z,17.44
2022-08-09T00:26:07.892Z,17.41
2022-08-09T00:28:35.189Z,17.37
2022-08-09T00:31:50.457Z,17.33
2022-08-09T00:33:52.082Z,17.26
2022-08-09T00:36:29.653Z,17.21
2022-08-09T00:38:58.528Z,17.12
2022-08-09T00:44:15.772Z,17.05
2022-08-09T00:44:20.251Z,16.99
2022-08-09T00:46:55.914Z,16.96
2022-08-09T00:49:24.916Z,16.92
2022-08-09T00:51:57.125Z,16.88
2022-08-09T00:54:34.893Z,16.87
2022-08-09T00:57:08.874Z,16.86
2022-08-09T00:59:45.995Z,16.85
2022-08-09T01:02:24.686Z,16.83
2022-08-09T01:05:02.607Z,16.82
2022-08-09T01:08:00.281Z,16.82
2022-08-09T01:10:40.040Z,16.84
2022-08-09T01:13:12.640Z,16.84
2022-08-09T01:15:51.705Z,16.86
2022-08-09T01:18:30.516Z,16.87
2022-08-09T01:21:10.209Z,16.87
2022-08-09T01:24:01.808Z,16.88
2022-08-09T01:26:37.040Z,16.89
2022-08-09T01:29:06.521Z,16.92
2022-08-09T01:32:29.844Z,16.96
2022-08-09T01:34:26.281Z,16.98
2022-08-09T01:36:56.231Z,16.99
2022-08-09T01:39:27.486Z,16.99
2022-08-09T01:42:00.610Z,16.96
2022-08-09T01:44:30.688Z,16.93
2022-08-09T01:46:59.939Z,16.93
2022-08-09T01:49:38.705Z,16.90
2022-08-09T01:52:09.717Z,16.88
2022-08-09T01:54:41.008Z,16.88
2022-08-09T01:57:14.938Z,16.87
2022-08-09T01:59:51.991Z,16.88
2022-08-09T02:02:31.309Z,16.87
2022-08-09T02:05:05.588Z,16.86
2022-08-09T02:08:35.805Z,16.85
2022-08-09T02:10:38.383Z,16.85
2022-08-09T02:13:08.212Z,16.84
2022-08-09T02:15:49.483Z,16.82
2022-08-09T02:18:25.595Z,16.79
2022-08-09T02:20:58.781Z,16.78
2022-08-09T02:23:52.478Z,16.79
2022-08-09T02:26:24.867Z,16.75
2022-08-09T02:28:55.836Z,16.75
2022-08-09T02:31:28.176Z,16.73
2022-08-09T02:34:07.077Z,16.74
2022-08-09T02:36:44.922Z,16.74
2022-08-09T02:39:33.745Z,16.74
2022-08-09T02:42:08.846Z,16.74
2022-08-09T02:44:40.421Z,16.71
2022-08-09T02:47:12.349Z,16.74
2022-08-09T02:49:43.616Z,16.77
2022-08-09T02:52:15.568Z,16.75
2022-08-09T02:54:51.125Z,16.76
2022-08-09T02:57:23.200Z,16.79
2022-08-09T03:00:21.003Z,16.83
2022-08-09T03:02:58.130Z,16.99
2022-08-09T03:05:27.642Z,17.12
2022-08-09T03:07:55.875Z,17.22
2022-08-09T03:10:25.253Z,17.16
2022-08-09T03:12:53.269Z,17.19
2022-08-09T03:15:23.137Z,17.23
2022-08-09T03:17:53.914Z,17.36
2022-08-09T03:20:29.539Z,17.59
2022-08-09T03:23:00.496Z,17.75
2022-08-09T03:26:03.465Z,17.84
2022-08-09T03:28:32.686Z,18.05
2022-08-09T03:31:10.154Z,18.13
2022-08-09T03:33:54.888Z,18.17
2022-08-09T03:36:27.731Z,18.40
2022-08-09T03:38:56.333Z,18.85
2022-08-09T03:41:29.820Z,19.33
2022-08-09T03:44:10.268Z,19.77
2022-08-09T03:46:39.279Z,20.05
2022-08-09T03:49:08.299Z,20.46
2022-08-09T03:51:57.644Z,20.81
2022-08-09T03:54:38.639Z,20.49
2022-08-09T03:57:17.916Z,20.22
2022-08-09T03:59:53.195Z,19.95
2022-08-09T04:02:26.474Z,19.94
2022-08-09T04:05:00.535Z,20.33
2022-08-09T04:07:51.122Z,20.87
2022-08-09T04:10:20.514Z,21.48
2022-08-09T04:12:49.763Z,22.00
2022-08-09T04:15:40.591Z,22.61
2022-08-09T04:18:06.898Z,22.93
2022-08-09T04:20:33.967Z,23.32
2022-08-09T04:23:01.919Z,23.77
2022-08-09T04:25:29.222Z,24.05
2022-08-09T04:28:02.570Z,24.01
2022-08-09T04:30:31.713Z,23.99
2022-08-09T04:33:00.222Z,23.85
2022-08-09T04:35:29.380Z,23.89
2022-08-09T04:37:59.847Z,23.90
2022-08-09T04:40:48.172Z,23.80
2022-08-09T04:43:21.044Z,24.02
2022-08-09T04:45:53.675Z,23.79
2022-08-09T04:48:21.683Z,23.54
2022-08-09T04:50:50.804Z,23.43
2022-08-09T04:53:17.741Z,23.74
2022-08-09T04:55:57.736Z,23.84
2022-08-09T04:58:31.933Z,24.27
2022-08-09T05:01:01.385Z,24.07
2022-08-09T05:03:39.941Z,23.74
2022-08-09T05:06:21.802Z,22.85
2022-08-09T05:08:55.169Z,22.77
2022-08-09T05:11:30.681Z,23.15
2022-08-09T05:14:05.867Z,23.30
2022-08-09T05:16:58.206Z,23.22
2022-08-09T05:19:24.313Z,23.42
2022-08-09T05:21:55.568Z,23.87
2022-08-09T05:24:24.743Z,24.51
2022-08-09T05:26:53.001Z,24.90
2022-08-09T05:29:21.813Z,24.92
2022-08-09T05:31:58.914Z,25.06
2022-08-09T05:34:30.578Z,25.22
2022-08-09T05:37:01.643Z,24.89
2022-08-09T05:39:36.047Z,24.79
2022-08-09T05:42:17.965Z,24.87
2022-08-09T05:44:52.482Z,24.72
2022-08-09T05:47:21.693Z,24.97
2022-08-09T05:50:23.641Z,25.34
2022-08-09T05:52:38.685Z,25.42
2022-08-09T05:55:08.806Z,26.00
2022-08-09T05:57:50.792Z,26.39
2022-08-09T06:00:23.587Z,26.74
2022-08-09T06:02:54.715Z,27.33
2022-08-09T06:05:50.652Z,27.93
2022-08-09T06:08:12.181Z,27.84
2022-08-09T06:10:39.275Z,27.96
2022-08-09T06:13:12.206Z,28.17
2022-08-09T06:15:46.832Z,28.51
2022-08-09T06:18:15.749Z,28.82
2022-08-09T06:20:43.554Z,28.94
2022-08-09T06:23:21.270Z,28.68
2022-08-09T06:25:49.662Z,28.44
2022-08-09T06:28:22.713Z,28.48
2022-08-09T06:30:54.314Z,28.70
2022-08-09T06:33:40.990Z,28.80
2022-08-09T06:36:13.627Z,29.18
2022-08-09T06:38:47.241Z,29.36
2022-08-09T06:41:18.635Z,28.92
2022-08-09T06:43:48.127Z,28.23
2022-08-09T06:46:38.991Z,28.08
2022-08-09T06:49:02.440Z,28.48
2022-08-09T06:51:29.276Z,28.31
2022-08-09T06:54:01.064Z,28.75
2022-08-09T06:56:31.114Z,28.93
2022-08-09T07:00:50.248Z,28.70
2022-08-09T07:01:59.591Z,29.15
2022-08-09T07:04:31.317Z,29.36
2022-08-09T07:07:00.383Z,29.46
2022-08-09T07:09:54.552Z,29.68
2022-08-09T07:12:18.791Z,29.40
2022-08-09T07:14:50.677Z,29.39
2022-08-09T07:17:20.187Z,29.25
2022-08-09T07:19:50.995Z,29.12
2022-08-09T07:22:34.281Z,29.05
2022-08-09T07:25:05.384Z,29.21
2022-08-09T07:27:43.067Z,29.16
2022-08-09T07:30:21.673Z,29.04
2022-08-09T07:32:52.134Z,29.23
2022-08-09T07:35:19.465Z,29.13
2022-08-09T07:37:49.166Z,29.48
2022-08-09T07:40:20.240Z,29.64
2022-08-09T07:42:58.670Z,29.90
2022-08-09T07:45:37.513Z,30.30
2022-08-09T07:48:25.718Z,29.93
2022-08-09T07:51:10.116Z,29.54
2022-08-09T07:54:05.263Z,29.48
2022-08-09T07:56:33.851Z,29.58
2022-08-09T07:59:01.118Z,29.55
2022-08-09T08:01:34.078Z,29.58
2022-08-09T08:04:03.795Z,29.40
2022-08-09T08:06:35.511Z,28.92
2022-08-09T08:09:07.552Z,29.23
2022-08-09T08:12:24.445Z,29.69
2022-08-09T08:14:31.893Z,30.38
2022-08-09T08:17:07.355Z,30.89
2022-08-09T08:19:35.833Z,31.23
2022-08-09T08:22:03.740Z,31.17
2022-08-09T08:24:34.300Z,31.29
2022-08-09T08:27:16.752Z,31.39
2022-08-09T08:29:50.135Z,31.16
2022-08-09T08:32:28.963Z,31.32
2022-08-09T08:35:00.726Z,30.99
2022-08-09T08:37:41.083Z,30.36
2022-08-09T08:40:16.874Z,29.30
2022-08-09T08:42:47.267Z,29.15
2022-08-09T08:45:16.690Z,29.24
2022-08-09T08:47:45.351Z,29.36
2022-08-09T08:50:18.206Z,29.40
2022-08-09T08:52:57.397Z,29.06
2022-08-09T08:55:27.940Z,28.83
2022-08-09T08:57:58.571Z,29.01
2022-08-09T09:00:34.334Z,29.23
2022-08-09T09:03:11.199Z,28.41
2022-08-09T09:06:01.173Z,28.09
2022-08-09T09:08:32.061Z,27.78
2022-08-09T09:11:06.273Z,27.41
2022-08-09T09:13:54.935Z,26.93
2022-08-09T09:16:30.913Z,26.91
2022-08-09T09:19:22.777Z,26.75
2022-08-09T09:22:23.869Z,26.99
2022-08-09T09:26:00.329Z,27.64
2022-08-09T09:28:05.101Z,27.85
2022-08-09T09:30:39.920Z,27.32
2022-08-09T09:33:16.701Z,27.19
2022-08-09T09:36:00.761Z,27.01
2022-08-09T09:38:41.944Z,27.48
2022-08-09T09:41:10.693Z,27.48
2022-08-09T09:43:41.653Z,27.31
2022-08-09T09:46:43.020Z,27.02
2022-08-09T09:49:31.748Z,26.87
2022-08-09T09:52:33.447Z,27.43
2022-08-09T09:55:16.209Z,27.80
2022-08-09T09:58:17.073Z,27.28
2022-08-09T10:00:59.051Z,27.11
2022-08-09T10:03:42.941Z,27.00
2022-08-09T10:06:11.681Z,26.94
2022-08-09T10:08:42.714Z,27.06
2022-08-09T10:11:59.172Z,27.59
2022-08-09T10:14:33.664Z,27.96
2022-08-09T10:17:40.238Z,27.80
2022-08-09T10:19:59.819Z,28.05
2022-08-09T10:22:35.948Z,28.04
2022-08-09T10:25:11.922Z,27.89
2022-08-09T10:27:56.553Z,28.28
2022-08-09T10:32:15.251Z,28.13
2022-08-09T10:33:29.915Z,28.43
2022-08-09T10:36:02.310Z,29.50
2022-08-09T10:38:54.601Z,30.46
2022-08-09T10:41:20.552Z,30.71
2022-08-09T10:43:59.907Z,30.48
2022-08-09T10:47:04.124Z,30.61
2022-08-09T10:49:58.514Z,30.61
2022-08-09T10:53:10.496Z,30.88
2022-08-09T10:55:58.357Z,31.30
2022-08-09T10:58:37.104Z,31.57
2022-08-09T11:03:02.816Z,31.79
2022-08-09T11:04:19.903Z,31.57
2022-08-09T11:07:01.421Z,31.84
2022-08-09T11:09:37.515Z,31.85
2022-08-09T11:12:17.181Z,31.09
2022-08-09T11:14:57.684Z,31.25
2022-08-09T11:17:27.268Z,31.20
2022-08-09T11:20:10.450Z,31.07
2022-08-09T11:22:44.744Z,30.73
2022-08-09T11:25:15.279Z,30.54
2022-08-09T11:28:02.393Z,30.54
2022-08-09T11:30:36.179Z,30.09
2022-08-09T11:33:18.421Z,29.44
2022-08-09T11:35:53.961Z,28.98
2022-08-09T11:38:35.051Z,28.36
2022-08-09T11:41:15.940Z,27.81
2022-08-09T11:43:48.750Z,27.43
2022-08-09T11:46:18.498Z,27.21
2022-08-09T11:49:00.422Z,27.06
2022-08-09T11:53:16.695Z,27.30
2022-08-09T11:54:28.693Z,27.48
2022-08-09T11:58:00.733Z,27.46
2022-08-09T12:00:28.147Z,27.19
2022-08-09T12:02:57.667Z,26.77
2022-08-09T12:05:39.533Z,26.77
2022-08-09T12:08:12.469Z,26.65
2022-08-09T12:10:58.620Z,26.45
2022-08-09T12:14:07.942Z,26.30
2022-08-09T12:16:40.051Z,25.93
2022-08-09T12:19:13.113Z,25.73
2022-08-09T12:21:48.794Z,25.55
2022-08-09T12:24:23.738Z,25.71
2022-08-09T12:29:14.070Z,25.76
2022-08-09T12:29:44.600Z,25.77
2022-08-09T12:32:27.063Z,25.80
2022-08-09T12:34:58.326Z,25.95
2022-08-09T12:37:49.888Z,26.10
2022-08-09T12:46:03.295Z,26.35
2022-08-09T12:48:33.709Z,26.50
2022-08-09T12:51:04.712Z,26.66
2022-08-09T12:53:40.842Z,26.74
2022-08-09T12:56:39.225Z,26.52
2022-08-09T12:59:14.276Z,26.50
2022-08-09T13:01:48.740Z,26.23
2022-08-09T13:04:36.807Z,26.21
2022-08-09T13:07:16.549Z,25.96
2022-08-09T13:09:48.198Z,25.80
2022-08-09T13:12:22.173Z,25.68
2022-08-09T13:14:53.686Z,25.44
2022-08-09T13:17:44.470Z,25.39
2022-08-09T13:20:14.388Z,25.38
2022-08-09T13:23:02.034Z,25.39
2022-08-09T13:25:54.453Z,25.33
2022-08-09T13:28:34.547Z,25.25
2022-08-09T13:32:15.711Z,25.19
2022-08-09T13:33:54.141Z,25.10
2022-08-09T13:36:38.130Z,25.02
2022-08-09T13:41:55.142Z,24.93
2022-08-09T13:42:02.571Z,24.86
2022-08-09T13:44:30.608Z,24.83
2022-08-09T13:47:29.478Z,24.80
2022-08-09T13:49:57.715Z,24.75
2022-08-09T13:52:29.174Z,24.71
2022-08-09T13:54:59.954Z,24.70
2022-08-09T13:57:39.783Z,24.62
2022-08-09T14:00:27.398Z,24.55
2022-08-09T14:03:16.894Z,24.49
2022-08-09T14:05:56.707Z,24.46
2022-08-09T14:08:28.339Z,24.49
2022-08-09T14:10:56.673Z,24.47
2022-08-09T14:13:27.861Z,24.42
2022-08-09T14:16:28.214Z,24.22
2022-08-09T14:18:58.083Z,23.96
2022-08-09T14:21:25.727Z,23.67
2022-08-09T14:23:57.511Z,23.37
2022-08-09T14:26:33.808Z,23.04
2022-08-09T14:29:08.156Z,22.71
2022-08-09T14:31:53.975Z,22.35
2022-08-09T14:34:31.263Z,22.06
2022-08-09T14:37:08.165Z,21.81
2022-08-09T14:39:46.842Z,21.62
2022-08-09T14:42:30.502Z,21.46
2022-08-09T14:45:01.705Z,21.33
2022-08-09T14:47:57.348Z,21.20
2022-08-09T14:50:37.313Z,21.07
2022-08-09T14:53:11.590Z,20.97
2022-08-09T14:55:50.264Z,20.84
2022-08-09T14:58:17.899Z,20.68
2022-08-09T15:00:48.478Z,20.50
2022-08-09T15:03:19.977Z,20.36
2022-08-09T15:05:52.544Z,20.25
2022-08-09T15:08:24.190Z,20.14
2022-08-09T15:11:00.285Z,20.07
2022-08-09T15:13:29.915Z,19.99
2022-08-09T15:16:16.025Z,19.94
2022-08-09T15:18:43.070Z,19.87
2022-08-09T15:22:00.988Z,19.85
2022-08-09T15:24:09.011Z,19.80
2022-08-09T15:26:45.109Z,19.80
2022-08-09T15:30:56.212Z,19.79
2022-08-09T15:31:59.720Z,19.82
2022-08-09T15:34:34.561Z,19.86
2022-08-09T15:37:04.335Z,19.89
2022-08-09T15:39:34.669Z,19.89
2022-08-09T15:42:02.686Z,19.87
2022-08-09T15:44:32.618Z,19.83
2022-08-09T15:47:00.880Z,19.76
2022-08-09T15:49:28.572Z,19.66
2022-08-09T15:52:05.032Z,19.58
2022-08-09T15:54:52.657Z,19.47
2022-08-09T15:57:34.519Z,19.39
2022-08-09T16:00:14.161Z,19.34
2022-08-09T16:02:53.407Z,19.29
2022-08-09T16:05:23.881Z,19.26
2022-08-09T16:07:51.081Z,19.24
2022-08-09T16:10:54.682Z,19.20
2022-08-09T16:13:20.803Z,19.16
2022-08-09T16:16:10.912Z,19.14
2022-08-09T16:18:44.693Z,19.12
2022-08-09T16:21:17.224Z,19.08
2022-08-09T16:23:50.705Z,19.00
2022-08-09T16:26:34.068Z,18.96
2022-08-09T16:29:11.343Z,18.93
2022-08-09T16:32:17.780Z,18.89
2022-08-09T16:34:53.455Z,18.86
2022-08-09T16:37:18.450Z,18.83
2022-08-09T16:39:54.552Z,18.84
2022-08-09T16:42:33.393Z,18.82
2022-08-09T16:45:00.245Z,18.80
2022-08-09T16:48:40.066Z,18.81
2022-08-09T16:50:29.134Z,18.82
2022-08-09T16:53:00.425Z,18.81
2022-08-09T16:55:44.073Z,18.81
2022-08-09T16:58:16.694Z,18.77
2022-08-09T17:00:43.728Z,18.75
2022-08-09T17:03:22.322Z,18.70
2022-08-09T17:06:08.006Z,18.65
2022-08-09T17:08:46.752Z,18.61
2022-08-09T17:11:32.775Z,18.54
2022-08-09T17:14:26.500Z,18.50
2022-08-09T17:17:02.667Z,18.44
2022-08-09T17:19:46.486Z,18.37
2022-08-09T17:22:28.667Z,18.31
2022-08-09T17:25:03.031Z,18.28
2022-08-09T17:27:32.415Z,18.23
2022-08-09T17:29:59.236Z,18.20
2022-08-09T17:32:34.993Z,18.15
2022-08-09T17:35:11.392Z,18.10
2022-08-09T17:38:14.487Z,18.08
2022-08-09T17:40:31.977Z,18.06
2022-08-09T17:43:03.316Z,18.04
2022-08-09T17:46:04.145Z,18.01
2022-08-09T17:48:39.720Z,17.97
2022-08-09T17:51:17.652Z,17.92
2022-08-09T17:53:51.872Z,17.90
2022-08-09T17:56:21.315Z,17.87
2022-08-09T17:58:48.344Z,17.83
2022-08-09T18:01:23.169Z,17.81
2022-08-09T18:03:54.538Z,17.79
2022-08-09T18:06:32.161Z,17.78
2022-08-09T18:09:05.147Z,17.75
2022-08-09T18:12:05.368Z,17.74
2022-08-09T18:14:23.051Z,17.74
2022-08-09T18:16:50.859Z,17.72
2022-08-09T18:20:55.493Z,17.71
2022-08-09T18:22:16.882Z,17.69
2022-08-09T18:24:45.970Z,17.67
2022-08-09T18:27:49.062Z,17.62
2022-08-09T18:30:42.604Z,17.55
2022-08-09T18:32:54.614Z,17.48
2022-08-09T18:35:58.598Z,17.43
2022-08-09T18:38:10.364Z,17.36
2022-08-09T18:40:40.414Z,17.32
2022-08-09T18:43:08.778Z,17.28
2022-08-09T18:46:47.091Z,17.24
2022-08-09T18:48:22.816Z,17.22
2022-08-09T18:50:57.447Z,17.17
2022-08-09T18:53:24.623Z,17.15
2022-08-09T18:55:56.938Z,17.11
2022-08-09T18:58:33.130Z,17.08
2022-08-09T19:01:00.807Z,17.06
2022-08-09T19:03:28.951Z,17.03
2022-08-09T19:06:02.892Z,17.00
2022-08-09T19:08:31.275Z,16.95
2022-08-09T19:10:58.444Z,16.91
2022-08-09T19:13:49.729Z,16.89
2022-08-09T19:16:12.875Z,16.84
2022-08-09T19:18:44.467Z,16.82
2022-08-09T19:21:12.807Z,16.77
2022-08-09T19:24:32.219Z,16.72
2022-08-09T19:26:31.288Z,16.63
2022-08-09T19:29:03.273Z,16.55
2022-08-09T19:31:44.049Z,16.46
2022-08-09T19:34:22.062Z,16.35
2022-08-09T19:36:54.496Z,16.27
2022-08-09T19:39:43.413Z,16.18
2022-08-09T19:42:14.629Z,16.08
2022-08-09T19:44:49.522Z,16.04
2022-08-09T19:47:23.682Z,16.02
2022-08-09T19:50:05.109Z,16.01
2022-08-09T19:52:51.568Z,16.02
2022-08-09T19:55:25.755Z,16.05
2022-08-09T19:57:58.162Z,16.06
2022-08-09T20:00:25.088Z,16.05
2022-08-09T20:04:09.595Z,16.09
2022-08-09T20:05:46.950Z,16.10
2022-08-09T20:08:33.383Z,16.14
2022-08-09T20:11:04.872Z,16.17
2022-08-09T20:13:37.129Z,16.20
2022-08-09T20:16:38.493Z,16.24
2022-08-09T20:19:42.248Z,16.24
2022-08-09T20:21:56.679Z,16.26
2022-08-09T20:24:29.797Z,16.28
2022-08-09T20:27:01.203Z,16.29
2022-08-09T20:29:32.711Z,16.33
2022-08-09T20:32:31.301Z,16.34
2022-08-09T20:34:55.837Z,16.35
2022-08-09T20:37:24.156Z,16.36
2022-08-09T20:40:15.495Z,16.38
2022-08-09T20:42:38.265Z,16.42
2022-08-09T20:45:59.591Z,16.44
2022-08-09T20:47:55.096Z,16.47
2022-08-09T20:50:47.292Z,16.48
2022-08-09T20:53:21.085Z,16.50
2022-08-09T20:56:01.029Z,16.52
2022-08-09T20:58:32.337Z,16.52
2022-08-09T21:01:32.799Z,16.55
2022-08-09T21:05:49.245Z,16.55
2022-08-09T21:06:36.133Z,16.55
2022-08-09T21:09:03.715Z,16.59
2022-08-09T21:14:17.592Z,16.59
2022-08-09T21:16:45.845Z,16.60
2022-08-09T21:20:19.346Z,16.62
2022-08-09T21:22:00.430Z,16.63
2022-08-09T21:24:32.466Z,16.66
2022-08-09T21:27:51.260Z,16.68
2022-08-09T21:29:49.672Z,16.70
2022-08-09T21:32:18.896Z,16.71
2022-08-09T21:34:49.049Z,16.73
2022-08-09T21:37:18.111Z,16.75
2022-08-09T21:39:56.051Z,16.75
2022-08-09T21:42:28.337Z,16.77
2022-08-09T21:44:55.768Z,16.78
2022-08-09T21:47:22.809Z,16.80
2022-08-09T21:49:49.722Z,16.81
2022-08-09T21:52:20.883Z,16.82
2022-08-09T21:55:03.099Z,16.84
2022-08-09T21:57:39.335Z,16.84
2022-08-09T22:00:33.739Z,16.83
2022-08-09T22:03:04.876Z,16.85
2022-08-09T22:05:42.459Z,16.85
2022-08-09T22:08:13.498Z,16.85
2022-08-09T22:11:50.099Z,16.85
2022-08-09T22:13:34.947Z,16.86
2022-08-09T22:16:07.159Z,16.88
2022-08-09T22:18:37.131Z,16.91
2022-08-09T22:21:09.810Z,16.93
2022-08-09T22:23:58.997Z,16.97
2022-08-09T22:26:35.603Z,16.99
2022-08-09T22:29:09.469Z,17.02
2022-08-09T22:31:44.281Z,17.04
2022-08-09T22:34:25.780Z,17.06
2022-08-09T22:36:54.753Z,17.09
2022-08-09T22:39:58.028Z,17.11
2022-08-09T22:42:20.978Z,17.12
2022-08-09T22:45:00.538Z,17.13
2022-08-09T22:48:10.123Z,17.12
2022-08-09T22:50:28.478Z,17.15
2022-08-09T22:52:58.344Z,17.15
2022-08-09T22:55:39.335Z,17.16
2022-08-09T22:58:30.710Z,17.16
2022-08-09T23:01:04.679Z,17.16
2022-08-09T23:04:03.651Z,17.15
2022-08-09T23:06:32.811Z,17.14
2022-08-09T23:09:04.494Z,17.15
2022-08-09T23:11:31.324Z,17.14
2022-08-09T23:13:59.665Z,17.13
2022-08-09T23:16:26.504Z,17.13
2022-08-09T23:18:53.330Z,17.13
2022-08-09T23:21:25.080Z,17.10
2022-08-09T23:24:05.438Z,17.07
2022-08-09T23:26:34.770Z,17.05
2022-08-09T23:29:01.651Z,17.05
2022-08-09T23:31:28.503Z,17.02
2022-08-09T23:33:55.339Z,17.00
2022-08-09T23:36:22.145Z,16.97
2022-08-09T23:38:49.526Z,16.97
2022-08-09T23:41:28.640Z,16.96
2022-08-09T23:43:57.872Z,16.94
2022-08-09T23:46:24.668Z,16.93
2022-08-09T23:48:51.529Z,16.92
2022-08-09T23:51:18.368Z,16.92
2022-08-09T23:53:45.163Z,16.90
2022-08-09T23:56:14.244Z,16.89
2022-08-09T23:58:41.527Z,16.86
